createdAt,value
2022-10-18T00:00:45.680Z,18.13
2022-10-18T00:03:12.385Z,18.15
2022-10-18T00:05:39.331Z,18.10
2022-10-18T00:08:06.033Z,18.05
2022-10-18T00:10:32.751Z,18.11
2022-10-18T00:12:59.377Z,18.08
2022-10-18T00:15:29.168Z,18.01
2022-10-18T00:17:56.226Z,17.99
2022-10-18T00:20:22.984Z,18.05
2022-10-18T00:22:49.604Z,18.07
2022-10-18T00:25:17.535Z,18.08
2022-10-18T00:27:44.916Z,17.97
2022-10-18T00:30:13.147Z,17.98
2022-10-18T00:32:44.101Z,17.94
2022-10-18T00:35:10.692Z,18.02
2022-10-18T00:37:37.523Z,18.00
2022-10-18T00:40:07.788Z,17.97
2022-10-18T00:42:38.008Z,17.91
2022-10-18T00:45:37.127Z,17.92
2022-10-18T00:48:11.033Z,17.89
2022-10-18T00:50:37.625Z,17.90
2022-10-18T00:53:10.169Z,17.86
2022-10-18T00:55:36.989Z,17.83
2022-10-18T00:58:05.252Z,17.97
2022-10-18T01:00:32.258Z,17.88
2022-10-18T01:03:03.787Z,17.86
2022-10-18T01:05:33.113Z,17.83
2022-10-18T01:08:36.679Z,17.82
2022-10-18T01:11:09.062Z,17.85
2022-10-18T01:13:55.052Z,17.89
2022-10-18T01:16:38.131Z,17.81
2022-10-18T01:19:29.339Z,17.86
2022-10-18T01:22:19.212Z,17.86
2022-10-18T01:25:10.578Z,17.83
2022-10-18T01:27:45.411Z,17.83
2022-10-18T01:30:30.331Z,17.86
2022-10-18T01:33:11.571Z,17.81
2022-10-18T01:35:44.562Z,17.77
2022-10-18T01:38:18.003Z,17.80
2022-10-18T01:40:48.061Z,17.77
2022-10-18T01:43:20.151Z,17.79
2022-10-18T01:45:47.504Z,17.70
2022-10-18T01:48:17.806Z,17.82
2022-10-18T01:50:45.650Z,17.76
2022-10-18T01:53:31.538Z,17.70
2022-10-18T01:56:27.487Z,17.78
2022-10-18T01:59:21.954Z,17.71
2022-10-18T02:02:07.025Z,17.73
2022-10-18T02:04:52.753Z,17.85
2022-10-18T02:07:35.109Z,17.76
2022-10-18T02:12:46.926Z,17.78
2022-10-18T02:15:18.949Z,17.71
2022-10-18T02:17:49.233Z,17.67
2022-10-18T02:20:19.961Z,17.64
2022-10-18T02:22:49.551Z,17.63
2022-10-18T02:25:23.920Z,17.64
2022-10-18T02:27:51.145Z,17.67
2022-10-18T02:30:18.157Z,17.62
2022-10-18T02:32:52.548Z,17.62
2022-10-18T02:35:37.570Z,17.59
2022-10-18T02:38:07.198Z,17.56
2022-10-18T02:40:33.909Z,17.62
2022-10-18T02:43:00.426Z,17.58
2022-10-18T02:45:31.867Z,17.54
2022-10-18T02:48:04.424Z,17.56
2022-10-18T02:50:30.994Z,17.52
2022-10-18T02:53:00.227Z,17.57
2022-10-18T02:57:58.381Z,17.56
2022-10-18T03:00:24.907Z,17.59
2022-10-18T03:02:54.957Z,17.53
2022-10-18T03:05:21.486Z,17.49
2022-10-18T03:07:56.806Z,17.51
2022-10-18T03:10:30.402Z,17.55
2022-10-18T03:12:56.886Z,17.43
2022-10-18T03:15:26.721Z,17.49
2022-10-18T03:17:53.212Z,17.52
2022-10-18T03:20:19.929Z,17.44
2022-10-18T03:22:46.623Z,17.49
2022-10-18T03:25:13.113Z,17.38
2022-10-18T03:27:39.662Z,17.38
2022-10-18T03:30:06.869Z,17.25
2022-10-18T03:32:33.625Z,17.25
2022-10-18T03:35:00.307Z,17.30
2022-10-18T03:37:26.827Z,17.38
2022-10-18T03:39:53.319Z,17.27
2022-10-18T03:42:19.807Z,17.31
2022-10-18T03:44:46.291Z,17.25
2022-10-18T03:47:14.879Z,17.16
2022-10-18T03:49:41.343Z,17.15
2022-10-18T03:52:07.903Z,17.18
2022-10-18T03:54:34.433Z,17.20
2022-10-18T03:57:01.074Z,17.15
2022-10-18T03:59:30.572Z,17.18
2022-10-18T04:02:06.107Z,17.14
2022-10-18T04:04:32.767Z,17.20
2022-10-18T04:06:59.418Z,17.21
2022-10-18T04:09:26.519Z,17.21
2022-10-18T04:11:53.515Z,17.19
2022-10-18T04:14:25.096Z,17.13
2022-10-18T04:16:51.852Z,17.21
2022-10-18T04:19:18.470Z,17.21
2022-10-18T04:21:45.180Z,17.22
2022-10-18T04:24:13.618Z,17.18
2022-10-18T04:26:40.180Z,17.24
2022-10-18T04:29:06.928Z,17.22
2022-10-18T04:31:37.566Z,17.14
2022-10-18T04:34:04.487Z,17.15
2022-10-18T04:36:31.971Z,17.13
2022-10-18T04:38:58.504Z,17.20
2022-10-18T04:41:26.988Z,17.11
2022-10-18T04:43:53.645Z,17.10
2022-10-18T04:46:20.317Z,17.13
2022-10-18T04:48:46.908Z,17.11
2022-10-18T04:51:13.562Z,17.03
2022-10-18T04:53:40.107Z,17.01
2022-10-18T04:56:07.345Z,17.06
2022-10-18T04:58:38.117Z,17.12
2022-10-18T05:01:09.833Z,17.00
2022-10-18T05:03:36.374Z,16.99
2022-10-18T05:06:03.690Z,16.96
2022-10-18T05:08:34.344Z,16.98
2022-10-18T05:11:01.663Z,16.98
2022-10-18T05:13:28.436Z,16.95
2022-10-18T05:15:55.482Z,17.01
2022-10-18T05:18:23.224Z,17.06
2022-10-18T05:20:49.775Z,17.04
2022-10-18T05:23:16.304Z,17.00
2022-10-18T05:25:43.607Z,16.96
2022-10-18T05:28:21.079Z,16.88
2022-10-18T05:31:07.780Z,16.94
2022-10-18T05:33:34.623Z,17.02
2022-10-18T05:36:01.511Z,17.13
2022-10-18T05:38:30.976Z,17.14
2022-10-18T05:40:58.761Z,16.92
2022-10-18T05:43:29.016Z,16.95
2022-10-18T05:45:55.885Z,16.89
2022-10-18T05:48:22.655Z,16.85
2022-10-18T05:50:49.218Z,16.73
2022-10-18T05:53:35.120Z,16.75
2022-10-18T05:56:03.270Z,16.79
2022-10-18T05:58:29.788Z,16.83
2022-10-18T06:01:01.695Z,16.85
2022-10-18T06:03:31.504Z,16.90
2022-10-18T06:06:02.696Z,16.96
2022-10-18T06:08:30.093Z,16.98
2022-10-18T06:10:59.479Z,17.03
2022-10-18T06:13:26.294Z,16.98
2022-10-18T06:15:57.478Z,17.01
2022-10-18T06:18:24.054Z,17.01
2022-10-18T06:20:56.747Z,17.02
2022-10-18T06:23:23.222Z,17.04
2022-10-18T06:25:52.408Z,17.10
2022-10-18T06:28:18.927Z,17.18
2022-10-18T06:30:45.567Z,17.22
2022-10-18T06:33:12.059Z,17.27
2022-10-18T06:35:38.560Z,17.31
2022-10-18T06:38:06.304Z,17.40
2022-10-18T06:40:37.932Z,17.45
2022-10-18T06:43:20.470Z,17.54
2022-10-18T06:45:48.931Z,17.79
2022-10-18T06:48:15.649Z,17.83
2022-10-18T06:50:42.279Z,17.91
2022-10-18T06:53:09.102Z,18.14
2022-10-18T06:55:36.081Z,18.14
2022-10-18T06:58:02.832Z,18.18
2022-10-18T07:00:29.505Z,18.26
2022-10-18T07:02:57.219Z,18.35
2022-10-18T07:05:23.957Z,18.46
2022-10-18T07:07:54.230Z,18.55
2022-10-18T07:10:23.928Z,18.67
2022-10-18T07:12:53.508Z,18.81
2022-10-18T07:15:24.151Z,19.00
2022-10-18T07:17:50.825Z,19.12
2022-10-18T07:20:17.557Z,19.28
2022-10-18T07:22:44.067Z,19.54
2022-10-18T07:25:10.599Z,19.77
2022-10-18T07:27:38.719Z,19.89
2022-10-18T07:30:09.918Z,19.90
2022-10-18T07:32:37.219Z,19.96
2022-10-18T07:35:04.040Z,20.06
2022-10-18T07:37:30.596Z,20.14
2022-10-18T07:39:57.077Z,20.22
2022-10-18T07:42:23.703Z,20.53
2022-10-18T07:44:50.655Z,21.01
2022-10-18T07:47:17.389Z,20.68
2022-10-18T07:49:44.056Z,20.54
2022-10-18T07:52:11.523Z,20.56
2022-10-18T07:54:38.182Z,20.39
2022-10-18T07:57:05.131Z,20.71
2022-10-18T07:59:31.746Z,20.94
2022-10-18T08:01:58.420Z,21.01
2022-10-18T08:04:25.364Z,20.87
2022-10-18T08:06:52.151Z,21.02
2022-10-18T08:09:18.793Z,20.94
2022-10-18T08:11:45.585Z,20.64
2022-10-18T08:14:13.283Z,20.45
2022-10-18T08:16:42.606Z,20.68
2022-10-18T08:19:11.697Z,20.62
2022-10-18T08:21:38.303Z,20.52
2022-10-18T08:24:05.384Z,20.44
2022-10-18T08:26:32.493Z,20.44
2022-10-18T08:29:17.944Z,20.53
2022-10-18T08:31:50.985Z,20.49
2022-10-18T08:34:19.875Z,20.56
2022-10-18T08:36:46.909Z,20.61
2022-10-18T08:39:13.483Z,20.73
2022-10-18T08:42:16.876Z,20.80
2022-10-18T08:44:54.602Z,20.63
2022-10-18T08:47:27.255Z,20.67
2022-10-18T08:50:14.029Z,20.59
2022-10-18T08:53:10.635Z,20.77
2022-10-18T08:55:43.046Z,20.63
2022-10-18T08:58:30.774Z,20.54
2022-10-18T09:01:31.479Z,20.60
2022-10-18T09:04:41.834Z,20.62
2022-10-18T09:07:31.424Z,20.68
2022-10-18T09:10:06.935Z,20.67
2022-10-18T09:13:05.106Z,20.89
2022-10-18T09:15:46.905Z,20.82
2022-10-18T09:18:54.162Z,20.93
2022-10-18T09:21:29.514Z,20.84
2022-10-18T09:24:18.274Z,20.77
2022-10-18T09:26:47.992Z,21.07
2022-10-18T09:29:26.768Z,21.07
2022-10-18T09:32:11.271Z,21.60
2022-10-18T09:34:47.635Z,21.21
2022-10-18T09:37:20.904Z,21.24
2022-10-18T09:39:50.518Z,21.58
2022-10-18T09:42:38.043Z,21.33
2022-10-18T09:45:22.344Z,21.32
2022-10-18T09:47:54.190Z,21.16
2022-10-18T09:50:24.243Z,21.20
2022-10-18T09:53:07.003Z,21.28
2022-10-18T09:55:39.840Z,21.72
2022-10-18T09:58:10.328Z,21.56
2022-10-18T10:00:48.100Z,21.53
2022-10-18T10:03:15.727Z,21.43
2022-10-18T10:05:43.675Z,21.47
2022-10-18T10:08:11.154Z,21.83
2022-10-18T10:10:47.091Z,21.61
2022-10-18T10:13:26.174Z,21.63
2022-10-18T10:15:56.565Z,21.82
2022-10-18T10:18:34.325Z,21.59
2022-10-18T10:21:05.696Z,21.64
2022-10-18T10:23:45.821Z,21.94
2022-10-18T10:26:29.177Z,22.11
2022-10-18T10:28:55.800Z,21.97
2022-10-18T10:31:25.366Z,21.88
2022-10-18T10:34:04.816Z,21.85
2022-10-18T10:36:33.575Z,22.13
2022-10-18T10:39:18.687Z,21.98
2022-10-18T10:42:00.703Z,22.11
2022-10-18T10:44:34.165Z,22.00
2022-10-18T10:47:03.126Z,21.99
2022-10-18T10:49:41.268Z,22.05
2022-10-18T10:52:27.231Z,22.04
2022-10-18T10:55:22.990Z,22.16
2022-10-18T10:57:49.994Z,22.22
2022-10-18T11:00:36.454Z,22.23
2022-10-18T11:03:33.752Z,22.10
2022-10-18T11:06:01.818Z,22.22
2022-10-18T11:08:35.787Z,22.12
2022-10-18T11:11:22.225Z,22.10
2022-10-18T11:14:07.327Z,22.13
2022-10-18T11:16:54.537Z,22.03
2022-10-18T11:19:34.298Z,22.30
2022-10-18T11:22:02.644Z,22.32
2022-10-18T11:24:29.379Z,22.38
2022-10-18T11:27:05.787Z,22.48
2022-10-18T11:29:55.500Z,22.77
2022-10-18T11:32:55.684Z,22.42
2022-10-18T11:35:56.165Z,22.53
2022-10-18T11:39:03.173Z,22.49
2022-10-18T11:41:44.371Z,22.52
2022-10-18T11:44:32.034Z,22.52
2022-10-18T11:47:27.364Z,22.81
2022-10-18T11:50:01.450Z,22.86
2022-10-18T11:52:49.101Z,22.63
2022-10-18T11:55:48.400Z,22.61
2022-10-18T11:58:34.988Z,22.64
2022-10-18T12:01:13.691Z,22.79
2022-10-18T12:04:08.986Z,22.81
2022-10-18T12:06:43.523Z,22.75
2022-10-18T12:09:32.880Z,22.88
2022-10-18T12:12:17.104Z,22.84
2022-10-18T12:14:51.177Z,22.81
2022-10-18T12:17:49.815Z,22.79
2022-10-18T12:20:26.223Z,22.80
2022-10-18T12:22:59.692Z,22.80
2022-10-18T12:25:28.794Z,23.16
2022-10-18T12:30:53.557Z,23.06
2022-10-18T12:33:28.375Z,23.16
2022-10-18T12:36:15.545Z,22.97
2022-10-18T12:38:46.169Z,22.78
2022-10-18T12:41:30.401Z,22.99
2022-10-18T12:44:05.172Z,23.22
2022-10-18T12:46:54.036Z,23.08
2022-10-18T12:49:23.652Z,22.98
2022-10-18T12:51:59.630Z,23.06
2022-10-18T12:54:36.042Z,23.00
2022-10-18T12:57:05.577Z,22.91
2022-10-18T12:59:31.956Z,22.79
2022-10-18T13:02:20.554Z,22.60
2022-10-18T13:04:48.293Z,22.67
2022-10-18T13:07:21.837Z,22.88
2022-10-18T13:10:10.039Z,22.82
2022-10-18T13:12:50.569Z,22.74
2022-10-18T13:15:36.181Z,22.73
2022-10-18T13:18:18.948Z,23.07
2022-10-18T13:21:08.352Z,22.84
2022-10-18T13:23:57.626Z,22.83
2022-10-18T13:26:34.226Z,22.65
2022-10-18T13:29:06.136Z,22.55
2022-10-18T13:31:45.507Z,22.58
2022-10-18T13:34:29.829Z,22.90
2022-10-18T13:37:14.084Z,22.93
2022-10-18T13:39:40.867Z,22.68
2022-10-18T13:42:29.560Z,22.59
2022-10-18T13:45:45.604Z,22.55
2022-10-18T13:48:30.282Z,22.58
2022-10-18T13:51:17.511Z,22.50
2022-10-18T13:54:01.912Z,22.53
2022-10-18T13:56:53.175Z,22.69
2022-10-18T14:00:03.253Z,22.62
2022-10-18T14:03:31.718Z,22.62
2022-10-18T14:06:08.778Z,22.63
2022-10-18T14:08:41.975Z,22.63
2022-10-18T14:11:47.390Z,22.59
2022-10-18T14:14:43.961Z,22.56
2022-10-18T14:17:25.825Z,23.10
2022-10-18T14:20:10.908Z,22.84
2022-10-18T14:22:47.720Z,22.61
2022-10-18T14:25:35.894Z,22.65
2022-10-18T14:28:13.651Z,22.68
2022-10-18T14:30:56.614Z,22.54
2022-10-18T14:33:48.015Z,22.46
2022-10-18T14:36:22.050Z,22.39
2022-10-18T14:38:53.273Z,22.35
2022-10-18T14:41:31.261Z,22.36
2022-10-18T14:44:24.063Z,22.37
2022-10-18T14:47:20.646Z,22.30
2022-10-18T14:49:47.795Z,22.28
2022-10-18T14:52:36.309Z,22.30
2022-10-18T14:55:03.758Z,22.26
2022-10-18T14:57:36.505Z,22.20
2022-10-18T15:00:09.306Z,22.33
2022-10-18T15:02:43.870Z,22.42
2022-10-18T15:05:28.608Z,22.39
2022-10-18T15:07:59.579Z,22.37
2022-10-18T15:10:33.568Z,22.55
2022-10-18T15:13:11.122Z,22.49
2022-10-18T15:15:47.760Z,22.36
2022-10-18T15:18:26.635Z,22.28
2022-10-18T15:21:24.074Z,22.12
2022-10-18T15:23:51.785Z,22.06
2022-10-18T15:26:26.730Z,22.09
2022-10-18T15:28:56.591Z,22.05
2022-10-18T15:31:31.503Z,22.01
2022-10-18T15:34:22.688Z,22.18
2022-10-18T15:36:51.451Z,22.09
2022-10-18T15:39:21.064Z,21.97
2022-10-18T15:41:55.762Z,21.87
2022-10-18T15:44:32.337Z,21.86
2022-10-18T15:47:20.201Z,21.77
2022-10-18T15:49:46.661Z,21.92
2022-10-18T15:52:38.831Z,21.95
2022-10-18T15:55:30.627Z,22.06
2022-10-18T15:58:19.003Z,22.01
2022-10-18T16:00:47.171Z,21.98
2022-10-18T16:03:14.842Z,21.97
2022-10-18T16:05:41.740Z,21.92
2022-10-18T16:08:22.407Z,21.83
2022-10-18T16:10:52.186Z,21.75
2022-10-18T16:13:19.654Z,21.70
2022-10-18T16:15:50.713Z,21.67
2022-10-18T16:18:20.224Z,21.62
2022-10-18T16:20:48.712Z,21.56
2022-10-18T16:23:38.830Z,21.50
2022-10-18T16:26:05.744Z,21.46
2022-10-18T16:28:32.481Z,21.41
2022-10-18T16:31:03.310Z,21.38
2022-10-18T16:33:31.278Z,21.35
2022-10-18T16:35:58.630Z,21.30
2022-10-18T16:38:35.237Z,21.26
2022-10-18T16:41:11.572Z,21.21
2022-10-18T16:43:39.607Z,21.18
2022-10-18T16:46:21.743Z,21.14
2022-10-18T16:48:55.896Z,21.12
2022-10-18T16:51:26.041Z,21.07
2022-10-18T16:53:56.282Z,21.01
2022-10-18T16:56:31.654Z,20.96
2022-10-18T16:59:04.776Z,20.91
2022-10-18T17:01:32.357Z,20.89
2022-10-18T17:04:06.223Z,20.91
2022-10-18T17:06:35.908Z,20.85
2022-10-18T17:09:23.605Z,20.81
2022-10-18T17:11:50.219Z,20.78
2022-10-18T17:14:16.809Z,20.76
2022-10-18T17:16:45.423Z,20.73
2022-10-18T17:19:22.247Z,20.72
2022-10-18T17:21:48.742Z,20.71
2022-10-18T17:24:15.254Z,20.65
2022-10-18T17:26:41.775Z,20.60
2022-10-18T17:29:11.689Z,20.58
2022-10-18T17:31:38.315Z,20.59
2022-10-18T17:34:05.167Z,20.59
2022-10-18T17:36:33.132Z,20.52
2022-10-18T17:38:59.679Z,20.43
2022-10-18T17:41:26.215Z,20.48
2022-10-18T17:43:52.898Z,20.39
2022-10-18T17:46:20.279Z,20.35
2022-10-18T17:48:46.941Z,20.31
2022-10-18T17:51:20.773Z,20.30
2022-10-18T17:53:50.125Z,20.34
2022-10-18T17:56:24.402Z,20.22
2022-10-18T17:58:56.661Z,20.22
2022-10-18T18:01:24.336Z,20.26
2022-10-18T18:03:56.147Z,20.26
2022-10-18T18:06:34.663Z,20.19
2022-10-18T18:09:07.405Z,20.24
2022-10-18T18:11:35.877Z,20.12
2022-10-18T18:14:09.722Z,20.06
2022-10-18T18:16:38.901Z,20.00
2022-10-18T18:19:09.532Z,19.91
2022-10-18T18:21:37.577Z,19.97
2022-10-18T18:24:04.452Z,19.98
2022-10-18T18:26:32.805Z,20.09
2022-10-18T18:29:00.116Z,19.96
2022-10-18T18:31:34.344Z,19.88
2022-10-18T18:34:05.246Z,19.85
2022-10-18T18:36:35.152Z,19.81
2022-10-18T18:39:02.216Z,19.79
2022-10-18T18:41:32.345Z,19.80
2022-10-18T18:44:02.225Z,19.73
2022-10-18T18:46:30.555Z,19.71
2022-10-18T18:48:58.424Z,19.69
2022-10-18T18:51:25.912Z,19.68
2022-10-18T18:53:57.695Z,19.62
2022-10-18T18:56:26.570Z,19.59
2022-10-18T18:58:59.722Z,19.58
2022-10-18T19:01:29.806Z,19.56
2022-10-18T19:03:58.125Z,19.54
2022-10-18T19:06:34.594Z,19.49
2022-10-18T19:09:03.846Z,19.50
2022-10-18T19:11:39.613Z,19.46
2022-10-18T19:14:08.225Z,19.44
2022-10-18T19:16:46.975Z,19.43
2022-10-18T19:19:16.747Z,19.50
2022-10-18T19:21:55.441Z,19.54
2022-10-18T19:24:29.197Z,19.53
2022-10-18T19:27:04.971Z,19.38
2022-10-18T19:29:34.662Z,19.32
2022-10-18T19:32:04.317Z,19.25
2022-10-18T19:34:32.884Z,19.25
2022-10-18T19:36:59.647Z,19.22
2022-10-18T19:39:31.597Z,19.22
2022-10-18T19:42:03.084Z,19.18
2022-10-18T19:44:34.982Z,19.23
2022-10-18T19:47:01.775Z,19.15
2022-10-18T19:49:28.835Z,19.20
2022-10-18T19:51:57.355Z,19.17
2022-10-18T19:54:25.913Z,19.16
2022-10-18T19:56:58.541Z,19.12
2022-10-18T19:59:31.656Z,19.14
2022-10-18T20:02:01.197Z,19.08
2022-10-18T20:04:27.979Z,19.07
2022-10-18T20:06:57.434Z,19.07
2022-10-18T20:09:24.863Z,18.99
2022-10-18T20:11:55.033Z,19.01
2022-10-18T20:14:27.523Z,19.03
2022-10-18T20:16:54.496Z,19.00
2022-10-18T20:19:21.552Z,18.95
2022-10-18T20:21:48.643Z,18.95
2022-10-18T20:24:15.619Z,18.93
2022-10-18T20:26:46.876Z,19.09
2022-10-18T20:29:13.610Z,19.01
2022-10-18T20:31:41.020Z,18.99
2022-10-18T20:34:12.053Z,18.94
2022-10-18T20:36:40.530Z,18.91
2022-10-18T20:39:16.955Z,18.87
2022-10-18T20:41:43.647Z,18.86
2022-10-18T20:44:16.727Z,18.84
2022-10-18T20:46:44.111Z,18.85
2022-10-18T20:49:14.598Z,18.82
2022-10-18T20:51:41.651Z,18.84
2022-10-18T20:54:08.506Z,18.78
2022-10-18T20:56:37.847Z,18.81
2022-10-18T20:59:06.332Z,18.82
2022-10-18T21:01:35.073Z,18.76
2022-10-18T21:04:04.451Z,18.77
2022-10-18T21:06:38.500Z,18.80
2022-10-18T21:09:11.185Z,18.78
2022-10-18T21:11:46.701Z,18.76
2022-10-18T21:14:16.175Z,18.73
2022-10-18T21:16:43.841Z,18.72
2022-10-18T21:19:23.002Z,18.68
2022-10-18T21:21:52.370Z,18.67
2022-10-18T21:24:23.358Z,18.60
2022-10-18T21:26:50.404Z,18.58
2022-10-18T21:29:27.324Z,18.60
2022-10-18T21:31:56.268Z,18.58
2022-10-18T21:34:22.958Z,18.58
2022-10-18T21:36:49.767Z,18.55
2022-10-18T21:39:20.254Z,18.48
2022-10-18T21:41:47.318Z,18.39
2022-10-18T21:44:19.689Z,18.36
2022-10-18T21:46:49.465Z,18.38
2022-10-18T21:49:16.214Z,18.39
2022-10-18T21:51:43.214Z,18.39
2022-10-18T21:54:16.861Z,18.39
2022-10-18T21:56:43.721Z,18.35
2022-10-18T21:59:16.412Z,18.37
2022-10-18T22:01:46.075Z,18.39
2022-10-18T22:04:21.843Z,18.44
2022-10-18T22:06:49.312Z,18.36
2022-10-18T22:09:19.451Z,18.33
2022-10-18T22:11:51.849Z,18.33
2022-10-18T22:14:19.626Z,18.30
2022-10-18T22:16:48.435Z,18.34
2022-10-18T22:19:19.758Z,18.31
2022-10-18T22:21:57.542Z,18.26
2022-10-18T22:24:24.034Z,18.29
2022-10-18T22:26:51.154Z,18.25
2022-10-18T22:29:19.714Z,18.24
2022-10-18T22:31:52.130Z,18.29
2022-10-18T22:34:24.307Z,18.29
2022-10-18T22:36:51.065Z,18.25
2022-10-18T22:39:17.723Z,18.17
2022-10-18T22:41:44.340Z,18.15
2022-10-18T22:44:12.396Z,18.13
2022-10-18T22:46:39.856Z,18.17
2022-10-18T22:49:07.139Z,18.20
2022-10-18T22:54:02.036Z,18.06
2022-10-18T22:56:28.556Z,18.12
2022-10-18T22:59:02.151Z,18.14
2022-10-18T23:01:28.654Z,18.12
2022-10-18T23:03:56.755Z,18.07
2022-10-18T23:06:29.232Z,18.08
2022-10-18T23:08:57.749Z,18.08
2022-10-18T23:11:26.095Z,18.02
2022-10-18T23:13:52.697Z,18.02
2022-10-18T23:16:20.269Z,18.03
2022-10-18T23:18:55.278Z,18.02
2022-10-18T23:21:24.403Z,18.00
2022-10-18T23:23:52.393Z,18.05
2022-10-18T23:26:26.782Z,17.96
2022-10-18T23:28:57.190Z,17.95
2022-10-18T23:31:27.004Z,17.97
2022-10-18T23:34:03.199Z,17.94
2022-10-18T23:36:30.753Z,17.96
2022-10-18T23:38:57.842Z,17.93
2022-10-18T23:41:25.359Z,17.93
2022-10-18T23:43:55.078Z,17.93
2022-10-18T23:46:22.747Z,17.96
2022-10-18T23:48:52.580Z,17.95
2022-10-18T23:51:19.170Z,17.91
2022-10-18T23:53:48.627Z,17.91
2022-10-18T23:56:19.067Z,17.88
2022-10-18T23:58:46.363Z,17.92
